sensor_id;sensor_type;location;lat;lon;timestamp;temperature;humidity
52285;DHT22;38238;53.304;6.606;2022-07-10T00:00:38;14.90;99.90
52285;DHT22;38238;53.304;6.606;2022-07-10T00:03:05;14.90;99.90
52285;DHT22;38238;53.304;6.606;2022-07-10T00:05:31;14.90;99.90
52285;DHT22;38238;53.304;6.606;2022-07-10T00:07:57;15.00;99.90
52285;DHT22;38238;53.304;6.606;2022-07-10T00:10:23;15.00;99.90
52285;DHT22;38238;53.304;6.606;2022-07-10T00:12:51;14.90;99.90
52285;DHT22;38238;53.304;6.606;2022-07-10T00:15:17;14.90;99.90
52285;DHT22;38238;53.304;6.606;2022-07-10T00:17:44;14.90;99.90
52285;DHT22;38238;53.304;6.606;2022-07-10T00:20:11;14.90;99.90
52285;DHT22;38238;53.304;6.606;2022-07-10T00:22:41;14.80;99.90
52285;DHT22;38238;53.304;6.606;2022-07-10T00:25:10;14.80;99.90
52285;DHT22;38238;53.304;6.606;2022-07-10T00:27:36;14.70;99.90
52285;DHT22;38238;53.304;6.606;2022-07-10T00:30:02;14.80;99.90
52285;DHT22;38238;53.304;6.606;2022-07-10T00:32:28;14.70;99.90
52285;DHT22;38238;53.304;6.606;2022-07-10T00:34:53;14.70;99.90
52285;DHT22;38238;53.304;6.606;2022-07-10T00:37:19;14.70;99.90
52285;DHT22;38238;53.304;6.606;2022-07-10T00:39:47;14.60;99.90
52285;DHT22;38238;53.304;6.606;2022-07-10T00:42:14;14.60;99.90
52285;DHT22;38238;53.304;6.606;2022-07-10T00:44:43;14.60;99.90
52285;DHT22;38238;53.304;6.606;2022-07-10T00:47:10;14.70;99.90
52285;DHT22;38238;53.304;6.606;2022-07-10T00:49:37;14.60;99.90
52285;DHT22;38238;53.304;6.606;2022-07-10T00:52:06;14.60;99.90
52285;DHT22;38238;53.304;6.606;2022-07-10T00:54:34;14.60;99.90
52285;DHT22;38238;53.304;6.606;2022-07-10T00:57:01;14.60;99.90
52285;DHT22;38238;53.304;6.606;2022-07-10T00:59:29;14.60;99.90
52285;DHT22;38238;53.304;6.606;2022-07-10T01:01:55;14.60;99.90
52285;DHT22;38238;53.304;6.606;2022-07-10T01:04:21;14.60;99.90
52285;DHT22;38238;53.304;6.606;2022-07-10T01:06:47;14.60;99.90
52285;DHT22;38238;53.304;6.606;2022-07-10T01:09:13;14.60;99.90
52285;DHT22;38238;53.304;6.606;2022-07-10T01:11:39;14.70;99.90
52285;DHT22;38238;53.304;6.606;2022-07-10T01:14:05;14.70;99.90
52285;DHT22;38238;53.304;6.606;2022-07-10T01:16:31;14.70;99.90
52285;DHT22;38238;53.304;6.606;2022-07-10T01:18:58;14.70;99.90
52285;DHT22;38238;53.304;6.606;2022-07-10T01:21:29;14.70;99.90
52285;DHT22;38238;53.304;6.606;2022-07-10T01:23:56;14.70;99.90
52285;DHT22;38238;53.304;6.606;2022-07-10T01:26:23;14.70;99.90
52285;DHT22;38238;53.304;6.606;2022-07-10T01:28:51;14.70;99.90
52285;DHT22;38238;53.304;6.606;2022-07-10T01:31:18;14.70;99.90
52285;DHT22;38238;53.304;6.606;2022-07-10T01:33:44;14.70;99.90
52285;DHT22;38238;53.304;6.606;2022-07-10T01:36:10;14.70;99.90
52285;DHT22;38238;53.304;6.606;2022-07-10T01:38:36;14.70;99.90
52285;DHT22;38238;53.304;6.606;2022-07-10T01:41:02;14.60;99.90
52285;DHT22;38238;53.304;6.606;2022-07-10T01:43:27;14.70;99.90
52285;DHT22;38238;53.304;6.606;2022-07-10T01:45:53;14.60;99.90
52285;DHT22;38238;53.304;6.606;2022-07-10T01:48:19;14.60;99.90
52285;DHT22;38238;53.304;6.606;2022-07-10T01:50:44;14.60;99.90
52285;DHT22;38238;53.304;6.606;2022-07-10T01:53:10;14.50;99.90
52285;DHT22;38238;53.304;6.606;2022-07-10T01:55:36;14.50;99.90
52285;DHT22;38238;53.304;6.606;2022-07-10T01:58:02;14.50;99.90
52285;DHT22;38238;53.304;6.606;2022-07-10T02:00:28;14.50;99.90
52285;DHT22;38238;53.304;6.606;2022-07-10T02:02:54;14.50;99.90
52285;DHT22;38238;53.304;6.606;2022-07-10T02:05:38;14.50;99.90
52285;DHT22;38238;53.304;6.606;2022-07-10T02:08:03;14.50;99.90
52285;DHT22;38238;53.304;6.606;2022-07-10T02:10:31;14.50;99.90
52285;DHT22;38238;53.304;6.606;2022-07-10T02:12:57;14.50;99.90
52285;DHT22;38238;53.304;6.606;2022-07-10T02:15:23;14.40;99.90
52285;DHT22;38238;53.304;6.606;2022-07-10T02:17:49;14.40;99.90
52285;DHT22;38238;53.304;6.606;2022-07-10T02:20:14;14.40;99.90
52285;DHT22;38238;53.304;6.606;2022-07-10T02:22:41;14.40;99.90
52285;DHT22;38238;53.304;6.606;2022-07-10T02:25:08;14.40;99.90
52285;DHT22;38238;53.304;6.606;2022-07-10T02:27:33;14.30;99.90
52285;DHT22;38238;53.304;6.606;2022-07-10T02:29:59;14.30;99.90
52285;DHT22;38238;53.304;6.606;2022-07-10T02:32:25;14.20;99.90
52285;DHT22;38238;53.304;6.606;2022-07-10T02:34:50;14.30;99.90
52285;DHT22;38238;53.304;6.606;2022-07-10T02:37:16;14.30;99.90
52285;DHT22;38238;53.304;6.606;2022-07-10T02:39:42;14.30;99.90
52285;DHT22;38238;53.304;6.606;2022-07-10T02:42:08;14.40;99.90
52285;DHT22;38238;53.304;6.606;2022-07-10T02:44:33;14.40;99.90
52285;DHT22;38238;53.304;6.606;2022-07-10T02:46:59;14.40;99.90
52285;DHT22;38238;53.304;6.606;2022-07-10T02:49:25;14.40;99.90
52285;DHT22;38238;53.304;6.606;2022-07-10T02:51:51;14.50;99.90
52285;DHT22;38238;53.304;6.606;2022-07-10T02:54:18;14.50;99.90
52285;DHT22;38238;53.304;6.606;2022-07-10T02:56:43;14.50;99.90
52285;DHT22;38238;53.304;6.606;2022-07-10T02:59:09;14.50;99.90
52285;DHT22;38238;53.304;6.606;2022-07-10T03:01:35;14.70;99.90
52285;DHT22;38238;53.304;6.606;2022-07-10T03:04:00;14.50;99.90
52285;DHT22;38238;53.304;6.606;2022-07-10T03:06:27;14.40;99.90
52285;DHT22;38238;53.304;6.606;2022-07-10T03:08:53;14.40;99.90
52285;DHT22;38238;53.304;6.606;2022-07-10T03:11:18;14.40;99.90
52285;DHT22;38238;53.304;6.606;2022-07-10T03:13:44;14.40;99.90
52285;DHT22;38238;53.304;6.606;2022-07-10T03:16:10;14.40;99.90
52285;DHT22;38238;53.304;6.606;2022-07-10T03:18:35;14.40;99.90
52285;DHT22;38238;53.304;6.606;2022-07-10T03:21:01;14.40;99.90
52285;DHT22;38238;53.304;6.606;2022-07-10T03:23:27;14.40;99.90
52285;DHT22;38238;53.304;6.606;2022-07-10T03:25:53;14.40;99.90
52285;DHT22;38238;53.304;6.606;2022-07-10T03:28:18;14.40;99.90
52285;DHT22;38238;53.304;6.606;2022-07-10T03:30:44;14.40;99.90
52285;DHT22;38238;53.304;6.606;2022-07-10T03:33:10;14.40;99.90
52285;DHT22;38238;53.304;6.606;2022-07-10T03:35:35;14.50;99.90
52285;DHT22;38238;53.304;6.606;2022-07-10T03:38:01;14.50;99.90
52285;DHT22;38238;53.304;6.606;2022-07-10T03:40:27;14.50;99.90
52285;DHT22;38238;53.304;6.606;2022-07-10T03:42:53;14.90;99.90
52285;DHT22;38238;53.304;6.606;2022-07-10T03:45:19;14.70;99.90
52285;DHT22;38238;53.304;6.606;2022-07-10T03:47:44;14.70;99.90
52285;DHT22;38238;53.304;6.606;2022-07-10T03:50:10;14.70;99.90
52285;DHT22;38238;53.304;6.606;2022-07-10T03:52:36;14.80;99.90
52285;DHT22;38238;53.304;6.606;2022-07-10T03:55:02;14.80;99.90
52285;DHT22;38238;53.304;6.606;2022-07-10T03:57:27;14.90;99.90
52285;DHT22;38238;53.304;6.606;2022-07-10T04:00:12;15.00;99.90
52285;DHT22;38238;53.304;6.606;2022-07-10T04:02:38;15.00;99.90
52285;DHT22;38238;53.304;6.606;2022-07-10T04:05:06;14.90;99.90
52285;DHT22;38238;53.304;6.606;2022-07-10T04:07:32;14.90;99.90
52285;DHT22;38238;53.304;6.606;2022-07-10T04:09:58;14.90;99.90
52285;DHT22;38238;53.304;6.606;2022-07-10T04:12:23;14.90;99.90
52285;DHT22;38238;53.304;6.606;2022-07-10T04:14:49;14.90;99.90
52285;DHT22;38238;53.304;6.606;2022-07-10T04:17:17;14.80;99.90
52285;DHT22;38238;53.304;6.606;2022-07-10T04:19:43;14.80;99.90
52285;DHT22;38238;53.304;6.606;2022-07-10T04:22:09;14.90;99.90
52285;DHT22;38238;53.304;6.606;2022-07-10T04:24:35;14.90;99.90
52285;DHT22;38238;53.304;6.606;2022-07-10T04:27:01;14.90;99.90
52285;DHT22;38238;53.304;6.606;2022-07-10T04:29:27;14.90;99.90
52285;DHT22;38238;53.304;6.606;2022-07-10T04:31:56;14.90;99.90
52285;DHT22;38238;53.304;6.606;2022-07-10T04:34:22;15.20;99.90
52285;DHT22;38238;53.304;6.606;2022-07-10T04:36:48;14.90;99.90
52285;DHT22;38238;53.304;6.606;2022-07-10T04:39:13;14.90;99.90
52285;DHT22;38238;53.304;6.606;2022-07-10T04:41:39;15.00;99.90
52285;DHT22;38238;53.304;6.606;2022-07-10T04:44:05;14.90;99.90
52285;DHT22;38238;53.304;6.606;2022-07-10T04:46:30;15.00;99.90
52285;DHT22;38238;53.304;6.606;2022-07-10T04:48:56;14.90;99.90
52285;DHT22;38238;53.304;6.606;2022-07-10T04:51:22;15.00;99.90
52285;DHT22;38238;53.304;6.606;2022-07-10T04:53:49;15.00;99.90
52285;DHT22;38238;53.304;6.606;2022-07-10T04:56:15;15.00;99.90
52285;DHT22;38238;53.304;6.606;2022-07-10T04:58:40;15.00;99.90
52285;DHT22;38238;53.304;6.606;2022-07-10T05:01:06;15.00;99.90
52285;DHT22;38238;53.304;6.606;2022-07-10T05:03:32;15.10;99.90
52285;DHT22;38238;53.304;6.606;2022-07-10T05:05:58;15.10;99.90
52285;DHT22;38238;53.304;6.606;2022-07-10T05:08:23;15.10;99.90
52285;DHT22;38238;53.304;6.606;2022-07-10T05:10:49;15.10;99.90
52285;DHT22;38238;53.304;6.606;2022-07-10T05:13:15;15.10;99.90
52285;DHT22;38238;53.304;6.606;2022-07-10T05:15:40;15.10;99.90
52285;DHT22;38238;53.304;6.606;2022-07-10T05:18:06;15.10;99.90
52285;DHT22;38238;53.304;6.606;2022-07-10T05:20:32;15.10;99.90
52285;DHT22;38238;53.304;6.606;2022-07-10T05:22:59;15.20;99.90
52285;DHT22;38238;53.304;6.606;2022-07-10T05:25:25;15.20;99.90
52285;DHT22;38238;53.304;6.606;2022-07-10T05:27:52;15.20;99.90
52285;DHT22;38238;53.304;6.606;2022-07-10T05:30:18;15.30;99.90
52285;DHT22;38238;53.304;6.606;2022-07-10T05:32:44;15.20;99.90
52285;DHT22;38238;53.304;6.606;2022-07-10T05:35:11;15.30;99.90
52285;DHT22;38238;53.304;6.606;2022-07-10T05:37:36;15.30;99.90
52285;DHT22;38238;53.304;6.606;2022-07-10T05:40:02;15.30;99.90
52285;DHT22;38238;53.304;6.606;2022-07-10T05:42:28;15.30;99.90
52285;DHT22;38238;53.304;6.606;2022-07-10T05:44:54;15.40;99.90
52285;DHT22;38238;53.304;6.606;2022-07-10T05:47:19;15.40;99.90
52285;DHT22;38238;53.304;6.606;2022-07-10T05:49:45;15.40;99.90
52285;DHT22;38238;53.304;6.606;2022-07-10T05:52:11;15.40;99.90
52285;DHT22;38238;53.304;6.606;2022-07-10T05:54:38;15.40;99.90
52285;DHT22;38238;53.304;6.606;2022-07-10T05:57:04;15.50;99.90
52285;DHT22;38238;53.304;6.606;2022-07-10T05:59:33;15.50;99.90
52285;DHT22;38238;53.304;6.606;2022-07-10T06:02:00;15.40;99.90
52285;DHT22;38238;53.304;6.606;2022-07-10T06:04:26;15.40;99.90
52285;DHT22;38238;53.304;6.606;2022-07-10T06:06:52;15.40;99.90
52285;DHT22;38238;53.304;6.606;2022-07-10T06:09:17;15.40;99.90
52285;DHT22;38238;53.304;6.606;2022-07-10T06:11:43;15.40;99.90
52285;DHT22;38238;53.304;6.606;2022-07-10T06:14:11;15.40;99.90
52285;DHT22;38238;53.304;6.606;2022-07-10T06:16:37;15.50;99.90
52285;DHT22;38238;53.304;6.606;2022-07-10T06:19:03;15.50;99.90
52285;DHT22;38238;53.304;6.606;2022-07-10T06:21:28;15.60;99.90
52285;DHT22;38238;53.304;6.606;2022-07-10T06:23:54;15.60;99.90
52285;DHT22;38238;53.304;6.606;2022-07-10T06:26:20;15.60;99.90
52285;DHT22;38238;53.304;6.606;2022-07-10T06:28:46;15.60;99.90
52285;DHT22;38238;53.304;6.606;2022-07-10T06:31:11;15.60;99.90
52285;DHT22;38238;53.304;6.606;2022-07-10T06:33:38;15.50;99.90
52285;DHT22;38238;53.304;6.606;2022-07-10T06:36:04;15.50;99.90
52285;DHT22;38238;53.304;6.606;2022-07-10T06:38:29;15.40;99.90
52285;DHT22;38238;53.304;6.606;2022-07-10T06:40:55;15.40;99.90
52285;DHT22;38238;53.304;6.606;2022-07-10T06:43:21;15.30;99.90
52285;DHT22;38238;53.304;6.606;2022-07-10T06:45:47;15.30;99.90
52285;DHT22;38238;53.304;6.606;2022-07-10T06:48:13;15.30;99.90
52285;DHT22;38238;53.304;6.606;2022-07-10T06:50:40;15.30;99.90
52285;DHT22;38238;53.304;6.606;2022-07-10T06:53:06;15.30;99.90
52285;DHT22;38238;53.304;6.606;2022-07-10T06:55:32;15.40;99.90
52285;DHT22;38238;53.304;6.606;2022-07-10T06:57:58;15.40;99.90
52285;DHT22;38238;53.304;6.606;2022-07-10T07:00:24;15.40;99.90
52285;DHT22;38238;53.304;6.606;2022-07-10T07:02:49;15.40;99.90
52285;DHT22;38238;53.304;6.606;2022-07-10T07:05:15;15.50;99.90
52285;DHT22;38238;53.304;6.606;2022-07-10T07:07:41;15.50;99.90
52285;DHT22;38238;53.304;6.606;2022-07-10T07:10:09;15.60;99.90
52285;DHT22;38238;53.304;6.606;2022-07-10T07:12:35;15.60;99.90
52285;DHT22;38238;53.304;6.606;2022-07-10T07:15:01;15.60;99.90
52285;DHT22;38238;53.304;6.606;2022-07-10T07:17:27;15.70;99.90
52285;DHT22;38238;53.304;6.606;2022-07-10T07:20:12;15.70;99.90
52285;DHT22;38238;53.304;6.606;2022-07-10T07:22:57;15.80;99.90
52285;DHT22;38238;53.304;6.606;2022-07-10T07:25:38;15.80;99.90
52285;DHT22;38238;53.304;6.606;2022-07-10T07:28:08;15.90;99.90
52285;DHT22;38238;53.304;6.606;2022-07-10T07:30:35;16.00;99.90
52285;DHT22;38238;53.304;6.606;2022-07-10T07:33:00;16.10;99.90
52285;DHT22;38238;53.304;6.606;2022-07-10T07:35:26;16.10;99.90
52285;DHT22;38238;53.304;6.606;2022-07-10T07:37:52;16.20;99.90
52285;DHT22;38238;53.304;6.606;2022-07-10T07:40:22;16.20;99.90
52285;DHT22;38238;53.304;6.606;2022-07-10T07:42:49;16.30;99.90
52285;DHT22;38238;53.304;6.606;2022-07-10T07:45:15;16.30;99.90
52285;DHT22;38238;53.304;6.606;2022-07-10T07:47:52;16.30;99.90
52285;DHT22;38238;53.304;6.606;2022-07-10T07:50:23;16.30;99.90
52285;DHT22;38238;53.304;6.606;2022-07-10T07:52:51;16.40;99.90
52285;DHT22;38238;53.304;6.606;2022-07-10T07:55:18;16.40;99.90
52285;DHT22;38238;53.304;6.606;2022-07-10T07:57:45;16.40;99.90
52285;DHT22;38238;53.304;6.606;2022-07-10T08:00:12;16.40;99.90
52285;DHT22;38238;53.304;6.606;2022-07-10T08:02:38;16.40;99.90
52285;DHT22;38238;53.304;6.606;2022-07-10T08:05:05;16.20;99.90
52285;DHT22;38238;53.304;6.606;2022-07-10T08:07:43;16.20;99.90
52285;DHT22;38238;53.304;6.606;2022-07-10T08:10:11;16.10;99.90
52285;DHT22;38238;53.304;6.606;2022-07-10T08:12:37;15.90;99.90
52285;DHT22;38238;53.304;6.606;2022-07-10T08:15:08;15.70;99.90
52285;DHT22;38238;53.304;6.606;2022-07-10T08:17:34;15.50;99.90
52285;DHT22;38238;53.304;6.606;2022-07-10T08:20:00;15.40;99.90
52285;DHT22;38238;53.304;6.606;2022-07-10T08:22:25;15.40;99.90
52285;DHT22;38238;53.304;6.606;2022-07-10T08:24:51;15.40;99.90
52285;DHT22;38238;53.304;6.606;2022-07-10T08:27:17;15.30;99.90
52285;DHT22;38238;53.304;6.606;2022-07-10T08:29:43;15.30;99.90
52285;DHT22;38238;53.304;6.606;2022-07-10T08:32:09;15.30;99.90
52285;DHT22;38238;53.304;6.606;2022-07-10T08:34:36;15.20;99.90
52285;DHT22;38238;53.304;6.606;2022-07-10T08:37:02;15.30;99.90
52285;DHT22;38238;53.304;6.606;2022-07-10T08:39:28;15.30;99.90
52285;DHT22;38238;53.304;6.606;2022-07-10T08:41:54;15.40;99.90
52285;DHT22;38238;53.304;6.606;2022-07-10T08:44:20;15.50;99.90
52285;DHT22;38238;53.304;6.606;2022-07-10T08:46:47;15.60;99.90
52285;DHT22;38238;53.304;6.606;2022-07-10T08:49:12;15.80;99.90
52285;DHT22;38238;53.304;6.606;2022-07-10T08:54:20;16.00;99.90
52285;DHT22;38238;53.304;6.606;2022-07-10T08:56:47;16.00;99.90
52285;DHT22;38238;53.304;6.606;2022-07-10T08:59:14;15.90;99.90
52285;DHT22;38238;53.304;6.606;2022-07-10T09:01:40;15.90;99.90
52285;DHT22;38238;53.304;6.606;2022-07-10T09:04:05;15.90;99.90
52285;DHT22;38238;53.304;6.606;2022-07-10T09:06:31;16.00;99.90
52285;DHT22;38238;53.304;6.606;2022-07-10T09:11:24;16.40;99.90
52285;DHT22;38238;53.304;6.606;2022-07-10T09:14:05;16.50;99.90
52285;DHT22;38238;53.304;6.606;2022-07-10T09:16:38;16.60;99.90
52285;DHT22;38238;53.304;6.606;2022-07-10T09:19:24;16.70;99.90
52285;DHT22;38238;53.304;6.606;2022-07-10T09:21:55;16.80;99.90
52285;DHT22;38238;53.304;6.606;2022-07-10T09:24:25;16.80;99.90
52285;DHT22;38238;53.304;6.606;2022-07-10T09:29:22;16.90;99.90
52285;DHT22;38238;53.304;6.606;2022-07-10T09:31:56;17.00;99.90
52285;DHT22;38238;53.304;6.606;2022-07-10T09:34:51;17.00;99.90
52285;DHT22;38238;53.304;6.606;2022-07-10T09:37:39;16.90;99.90
52285;DHT22;38238;53.304;6.606;2022-07-10T09:40:07;16.80;99.90
52285;DHT22;38238;53.304;6.606;2022-07-10T09:45:15;16.60;99.90
52285;DHT22;38238;53.304;6.606;2022-07-10T09:47:59;16.60;99.90
52285;DHT22;38238;53.304;6.606;2022-07-10T09:50:33;16.60;99.90
52285;DHT22;38238;53.304;6.606;2022-07-10T09:53:01;16.60;99.90
52285;DHT22;38238;53.304;6.606;2022-07-10T09:55:32;16.60;99.90
52285;DHT22;38238;53.304;6.606;2022-07-10T09:58:03;16.50;99.90
52285;DHT22;38238;53.304;6.606;2022-07-10T10:00:31;16.50;99.90
52285;DHT22;38238;53.304;6.606;2022-07-10T10:02:59;16.60;99.90
52285;DHT22;38238;53.304;6.606;2022-07-10T10:05:53;16.70;99.90
52285;DHT22;38238;53.304;6.606;2022-07-10T10:08:19;16.80;99.90
52285;DHT22;38238;53.304;6.606;2022-07-10T10:10:50;16.80;99.90
52285;DHT22;38238;53.304;6.606;2022-07-10T10:13:24;16.60;99.90
52285;DHT22;38238;53.304;6.606;2022-07-10T10:15:53;16.30;99.90
52285;DHT22;38238;53.304;6.606;2022-07-10T10:18:21;16.10;99.90
52285;DHT22;38238;53.304;6.606;2022-07-10T10:20:48;15.90;99.90
52285;DHT22;38238;53.304;6.606;2022-07-10T10:23:19;15.70;99.90
52285;DHT22;38238;53.304;6.606;2022-07-10T10:25:56;15.70;99.90
52285;DHT22;38238;53.304;6.606;2022-07-10T10:28:23;15.80;99.90
52285;DHT22;38238;53.304;6.606;2022-07-10T10:30:55;15.90;99.90
52285;DHT22;38238;53.304;6.606;2022-07-10T10:36:02;16.30;99.90
52285;DHT22;38238;53.304;6.606;2022-07-10T10:41:50;16.90;99.90
52285;DHT22;38238;53.304;6.606;2022-07-10T10:49:23;16.60;99.90
52285;DHT22;38238;53.304;6.606;2022-07-10T10:52:04;16.40;99.90
52285;DHT22;38238;53.304;6.606;2022-07-10T10:57:22;16.30;99.90
52285;DHT22;38238;53.304;6.606;2022-07-10T11:02:30;16.30;99.90
52285;DHT22;38238;53.304;6.606;2022-07-10T11:15:36;17.20;99.90
52285;DHT22;38238;53.304;6.606;2022-07-10T11:18:13;17.20;99.90
52285;DHT22;38238;53.304;6.606;2022-07-10T11:20:48;17.20;99.90
52285;DHT22;38238;53.304;6.606;2022-07-10T11:28:50;17.30;99.90
52285;DHT22;38238;53.304;6.606;2022-07-10T11:31:18;17.30;99.90
52285;DHT22;38238;53.304;6.606;2022-07-10T11:33:45;17.30;99.90
52285;DHT22;38238;53.304;6.606;2022-07-10T11:36:26;17.20;99.90
52285;DHT22;38238;53.304;6.606;2022-07-10T11:41:24;17.20;99.90
52285;DHT22;38238;53.304;6.606;2022-07-10T11:43:52;17.40;99.90
52285;DHT22;38238;53.304;6.606;2022-07-10T11:46:20;17.50;99.90
52285;DHT22;38238;53.304;6.606;2022-07-10T11:48:47;17.60;99.90
52285;DHT22;38238;53.304;6.606;2022-07-10T11:51:27;17.60;99.90
52285;DHT22;38238;53.304;6.606;2022-07-10T11:54:13;17.60;99.90
52285;DHT22;38238;53.304;6.606;2022-07-10T11:56:46;17.60;99.90
52285;DHT22;38238;53.304;6.606;2022-07-10T11:59:13;17.50;99.90
52285;DHT22;38238;53.304;6.606;2022-07-10T12:01:47;17.50;99.90
52285;DHT22;38238;53.304;6.606;2022-07-10T12:04:14;17.50;99.90
52285;DHT22;38238;53.304;6.606;2022-07-10T12:06:42;17.60;99.90
52285;DHT22;38238;53.304;6.606;2022-07-10T12:09:12;17.70;99.90
52285;DHT22;38238;53.304;6.606;2022-07-10T12:11:40;17.70;99.90
52285;DHT22;38238;53.304;6.606;2022-07-10T12:14:15;17.70;99.90
52285;DHT22;38238;53.304;6.606;2022-07-10T12:16:44;17.70;99.90
52285;DHT22;38238;53.304;6.606;2022-07-10T12:19:15;17.90;99.90
52285;DHT22;38238;53.304;6.606;2022-07-10T12:21:43;18.00;99.90
52285;DHT22;38238;53.304;6.606;2022-07-10T12:24:09;18.00;99.90
52285;DHT22;38238;53.304;6.606;2022-07-10T12:26:38;17.90;99.90
52285;DHT22;38238;53.304;6.606;2022-07-10T12:29:04;17.80;99.90
52285;DHT22;38238;53.304;6.606;2022-07-10T12:31:34;17.80;99.90
52285;DHT22;38238;53.304;6.606;2022-07-10T12:34:04;17.80;99.90
52285;DHT22;38238;53.304;6.606;2022-07-10T12:36:49;17.80;99.90
52285;DHT22;38238;53.304;6.606;2022-07-10T12:39:17;17.80;99.90
52285;DHT22;38238;53.304;6.606;2022-07-10T12:41:54;17.90;99.90
52285;DHT22;38238;53.304;6.606;2022-07-10T12:47:08;17.90;99.90
52285;DHT22;38238;53.304;6.606;2022-07-10T12:50:03;17.80;99.90
52285;DHT22;38238;53.304;6.606;2022-07-10T12:52:36;17.60;99.90
52285;DHT22;38238;53.304;6.606;2022-07-10T12:55:19;17.40;99.90
52285;DHT22;38238;53.304;6.606;2022-07-10T12:58:09;17.30;99.90
52285;DHT22;38238;53.304;6.606;2022-07-10T13:00:44;17.30;99.90
52285;DHT22;38238;53.304;6.606;2022-07-10T13:03:16;17.40;99.90
52285;DHT22;38238;53.304;6.606;2022-07-10T13:05:43;17.50;99.90
52285;DHT22;38238;53.304;6.606;2022-07-10T13:08:22;17.60;99.90
52285;DHT22;38238;53.304;6.606;2022-07-10T13:10:56;17.60;99.90
52285;DHT22;38238;53.304;6.606;2022-07-10T13:13:22;17.70;99.90
52285;DHT22;38238;53.304;6.606;2022-07-10T13:15:48;17.80;99.90
52285;DHT22;38238;53.304;6.606;2022-07-10T13:18:26;17.90;99.90
52285;DHT22;38238;53.304;6.606;2022-07-10T13:20:54;19.00;99.90
52285;DHT22;38238;53.304;6.606;2022-07-10T13:23:20;18.20;99.90
52285;DHT22;38238;53.304;6.606;2022-07-10T13:25:53;18.30;99.90
52285;DHT22;38238;53.304;6.606;2022-07-10T13:28:19;18.30;99.90
52285;DHT22;38238;53.304;6.606;2022-07-10T13:30:45;18.20;99.90
52285;DHT22;38238;53.304;6.606;2022-07-10T13:33:11;18.20;99.90
52285;DHT22;38238;53.304;6.606;2022-07-10T13:35:37;18.30;99.90
52285;DHT22;38238;53.304;6.606;2022-07-10T13:38:04;18.40;99.90
52285;DHT22;38238;53.304;6.606;2022-07-10T13:40:34;18.60;99.90
52285;DHT22;38238;53.304;6.606;2022-07-10T13:43:01;18.60;99.90
52285;DHT22;38238;53.304;6.606;2022-07-10T13:45:27;18.60;99.90
52285;DHT22;38238;53.304;6.606;2022-07-10T13:47:59;18.70;99.90
52285;DHT22;38238;53.304;6.606;2022-07-10T13:50:26;18.70;99.90
52285;DHT22;38238;53.304;6.606;2022-07-10T13:52:52;18.50;99.90
52285;DHT22;38238;53.304;6.606;2022-07-10T13:55:18;18.30;99.90
52285;DHT22;38238;53.304;6.606;2022-07-10T13:57:44;19.20;99.90
52285;DHT22;38238;53.304;6.606;2022-07-10T14:00:10;17.90;99.90
52285;DHT22;38238;53.304;6.606;2022-07-10T14:02:37;17.90;99.90
52285;DHT22;38238;53.304;6.606;2022-07-10T14:05:03;17.80;99.90
52285;DHT22;38238;53.304;6.606;2022-07-10T14:07:29;17.70;99.90
52285;DHT22;38238;53.304;6.606;2022-07-10T14:09:55;17.70;99.90
52285;DHT22;38238;53.304;6.606;2022-07-10T14:12:21;17.70;99.90
52285;DHT22;38238;53.304;6.606;2022-07-10T14:14:49;17.80;99.90
52285;DHT22;38238;53.304;6.606;2022-07-10T14:17:16;17.80;99.90
52285;DHT22;38238;53.304;6.606;2022-07-10T14:19:42;17.80;99.90
52285;DHT22;38238;53.304;6.606;2022-07-10T14:22:08;17.90;99.90
52285;DHT22;38238;53.304;6.606;2022-07-10T14:24:34;17.90;99.90
52285;DHT22;38238;53.304;6.606;2022-07-10T14:27:00;18.00;99.90
52285;DHT22;38238;53.304;6.606;2022-07-10T14:29:26;18.00;99.90
52285;DHT22;38238;53.304;6.606;2022-07-10T14:31:52;18.00;99.90
52285;DHT22;38238;53.304;6.606;2022-07-10T14:37:20;18.20;99.90
52285;DHT22;38238;53.304;6.606;2022-07-10T14:39:48;18.40;99.90
52285;DHT22;38238;53.304;6.606;2022-07-10T14:42:14;18.40;99.90
52285;DHT22;38238;53.304;6.606;2022-07-10T14:44:40;18.30;99.90
52285;DHT22;38238;53.304;6.606;2022-07-10T14:47:06;18.40;99.90
52285;DHT22;38238;53.304;6.606;2022-07-10T14:49:32;18.40;99.90
52285;DHT22;38238;53.304;6.606;2022-07-10T14:51:58;18.40;99.90
52285;DHT22;38238;53.304;6.606;2022-07-10T14:54:24;18.50;99.90
52285;DHT22;38238;53.304;6.606;2022-07-10T14:56:51;18.40;99.90
52285;DHT22;38238;53.304;6.606;2022-07-10T14:59:17;18.40;99.90
52285;DHT22;38238;53.304;6.606;2022-07-10T15:01:42;18.50;99.90
52285;DHT22;38238;53.304;6.606;2022-07-10T15:04:08;18.60;99.90
52285;DHT22;38238;53.304;6.606;2022-07-10T15:06:34;18.70;99.90
52285;DHT22;38238;53.304;6.606;2022-07-10T15:08:59;18.80;99.90
52285;DHT22;38238;53.304;6.606;2022-07-10T15:11:25;18.80;99.90
52285;DHT22;38238;53.304;6.606;2022-07-10T15:13:52;18.80;99.90
52285;DHT22;38238;53.304;6.606;2022-07-10T15:16:25;18.80;99.90
52285;DHT22;38238;53.304;6.606;2022-07-10T15:18:52;18.80;99.90
52285;DHT22;38238;53.304;6.606;2022-07-10T15:21:17;18.90;99.90
52285;DHT22;38238;53.304;6.606;2022-07-10T15:23:44;18.80;99.90
52285;DHT22;38238;53.304;6.606;2022-07-10T15:26:09;18.80;99.90
52285;DHT22;38238;53.304;6.606;2022-07-10T15:28:35;18.90;99.90
52285;DHT22;38238;53.304;6.606;2022-07-10T15:31:02;18.90;99.90
52285;DHT22;38238;53.304;6.606;2022-07-10T15:33:34;19.00;99.90
52285;DHT22;38238;53.304;6.606;2022-07-10T15:36:01;19.10;99.90
52285;DHT22;38238;53.304;6.606;2022-07-10T15:38:27;19.10;99.90
52285;DHT22;38238;53.304;6.606;2022-07-10T15:40:53;19.10;99.90
52285;DHT22;38238;53.304;6.606;2022-07-10T15:43:19;19.30;99.90
52285;DHT22;38238;53.304;6.606;2022-07-10T15:45:44;19.40;99.90
52285;DHT22;38238;53.304;6.606;2022-07-10T15:48:10;19.40;99.90
52285;DHT22;38238;53.304;6.606;2022-07-10T15:50:40;19.40;99.90
52285;DHT22;38238;53.304;6.606;2022-07-10T15:53:06;19.40;99.90
52285;DHT22;38238;53.304;6.606;2022-07-10T15:55:32;19.30;99.90
52285;DHT22;38238;53.304;6.606;2022-07-10T15:57:58;19.30;99.90
52285;DHT22;38238;53.304;6.606;2022-07-10T16:00:23;19.30;99.90
52285;DHT22;38238;53.304;6.606;2022-07-10T16:02:49;19.40;99.90
52285;DHT22;38238;53.304;6.606;2022-07-10T16:05:16;19.50;99.90
52285;DHT22;38238;53.304;6.606;2022-07-10T16:07:42;19.40;99.90
52285;DHT22;38238;53.304;6.606;2022-07-10T16:10:08;19.40;99.90
52285;DHT22;38238;53.304;6.606;2022-07-10T16:12:33;19.30;99.90
52285;DHT22;38238;53.304;6.606;2022-07-10T16:14:59;19.30;99.90
52285;DHT22;38238;53.304;6.606;2022-07-10T16:17:25;19.30;99.90
52285;DHT22;38238;53.304;6.606;2022-07-10T16:19:50;19.30;99.90
52285;DHT22;38238;53.304;6.606;2022-07-10T16:22:16;19.30;99.90
52285;DHT22;38238;53.304;6.606;2022-07-10T16:24:42;19.30;99.90